PWSweather.com
Personal Weather Stations
Station Observations
IBELLARIA2
Riviera Adriatica, Bellaria Igea MarinaIT 47814

Riviera AdriaticaBellaria Igea MarinaIT 47814

Lat: 44.1481151, Lon: 12.4594771

Elevation: 15

Station Type: DAVIS Vantage PRO2

http://www.bellariameteo.it

Latest ConditionsUpdated 3:15:06 AM GMT+01:01 Tuesday, Mar 28, 2017
Currently Today's Max Today's Min Today's Average
Temperature 39.9°F4.4°C 42.8°F6.0°C 39.9°F4.4°C 41.4°F5.2°C
Dew Point 30.9°F-0.6°C 33.0°F0.6°C 30.9°F-0.6°C 31.7°F-0.2°C
Winds 2.0 mph W3.2 kmh W 4.0 mph SSW6.4 kmh SSW - 1.7 mph 2.7 kmh
Wind Gusts 4.0 mph6.4 kmh 5.0 mph8.0 kmh - -
Humidity 70% 73% 66% 68%
Pressure 30.21 in1023.0 mb 30.23 in1023.7 mb 30.20 in1022.7 mb -
Hour Temp Dew Point Humidity Winds Wind Gusts Pressure Precip Precip Rate Daily Precip Total
03:15 AM 39.9°F4.4°C 30.9°F-0.6°C 70% 2.0 mph W3.2 kmh W 4.0 mph6.4 kmh 30.21 in1023.0 mb 0.00 in0.0 mm 0.00 in0.0 mm 0.00 in0.0 mm
03:10 AM 40.4°F4.7°C 31.4°F-0.3°C 70% 2.0 mph WNW3.2 kmh WNW 5.0 mph8.0 kmh 30.20 in1022.7 mb 0.00 in0.0 mm 0.00 in0.0 mm 0.00 in0.0 mm
03:05 AM 40.9°F4.9°C 31.5°F-0.3°C 69% 2.0 mph WSW3.2 kmh WSW 4.0 mph6.4 kmh 30.20 in1022.7 mb 0.00 in0.0 mm 0.00 in0.0 mm 0.00 in0.0 mm
03:00 AM 41.0°F5.0°C 31.6°F-0.2°C 69% 2.0 mph SSW3.2 kmh SSW 3.0 mph4.8 kmh 30.20 in1022.7 mb 0.00 in0.0 mm 0.00 in0.0 mm 0.00 in0.0 mm
02:55 AM 41.0°F5.0°C 31.6°F-0.2°C 69% 1.0 mph SSW1.6 kmh SSW 4.0 mph6.4 kmh 30.21 in1023.0 mb 0.00 in0.0 mm 0.00 in0.0 mm 0.00 in0.0 mm
02:50 AM 41.0°F5.0°C 31.6°F-0.2°C 69% Calm Calm 4.0 mph6.4 kmh 30.21 in1023.0 mb 0.00 in0.0 mm 0.00 in0.0 mm 0.00 in0.0 mm
02:45 AM 41.1°F5.1°C 31.7°F-0.2°C 69% 4.0 mph SSW6.4 kmh SSW 4.0 mph6.4 kmh 30.21 in1023.0 mb 0.00 in0.0 mm 0.00 in0.0 mm 0.00 in0.0 mm
02:40 AM 41.0°F5.0°C 31.6°F-0.2°C 69% 3.0 mph SSW4.8 kmh SSW 4.0 mph6.4 kmh 30.21 in1023.0 mb 0.00 in0.0 mm 0.00 in0.0 mm 0.00 in0.0 mm
02:35 AM 40.8°F4.9°C 31.4°F-0.3°C 69% 3.0 mph SW4.8 kmh SW 4.0 mph6.4 kmh 30.21 in1023.0 mb 0.00 in0.0 mm 0.00 in0.0 mm 0.00 in0.0 mm
02:30 AM 40.8°F4.9°C 31.4°F-0.3°C 69% 3.0 mph SW4.8 kmh SW 3.0 mph4.8 kmh 30.21 in1023.0 mb 0.00 in0.0 mm 0.00 in0.0 mm 0.00 in0.0 mm
02:25 AM 40.9°F4.9°C 31.5°F-0.3°C 69% 2.0 mph SW3.2 kmh SW 3.0 mph4.8 kmh 30.21 in1023.0 mb 0.00 in0.0 mm 0.00 in0.0 mm 0.00 in0.0 mm
02:20 AM 41.0°F5.0°C 31.6°F-0.2°C 69% Calm Calm 3.0 mph4.8 kmh 30.21 in1023.0 mb 0.00 in0.0 mm 0.00 in0.0 mm 0.00 in0.0 mm
02:15 AM 40.9°F4.9°C 31.5°F-0.3°C 69% 1.0 mph WSW1.6 kmh WSW 2.0 mph3.2 kmh 30.21 in1023.0 mb 0.00 in0.0 mm 0.00 in0.0 mm 0.00 in0.0 mm
02:10 AM 41.0°F5.0°C 33.0°F0.6°C 73% Calm Calm 3.0 mph4.8 kmh 30.22 in1023.4 mb 0.00 in0.0 mm 0.00 in0.0 mm 0.00 in0.0 mm
02:05 AM 41.0°F5.0°C 31.6°F-0.2°C 69% 1.0 mph WSW1.6 kmh WSW 4.0 mph6.4 kmh 30.22 in1023.4 mb 0.00 in0.0 mm 0.00 in0.0 mm 0.00 in0.0 mm
02:00 AM 41.0°F5.0°C 31.6°F-0.2°C 69% Calm Calm 4.0 mph6.4 kmh 30.22 in1023.4 mb 0.00 in0.0 mm 0.00 in0.0 mm 0.00 in0.0 mm
01:55 AM 41.0°F5.0°C 31.6°F-0.2°C 69% Calm Calm 3.0 mph4.8 kmh 30.22 in1023.4 mb 0.00 in0.0 mm 0.00 in0.0 mm 0.00 in0.0 mm
01:50 AM 41.1°F5.1°C 31.7°F-0.2°C 69% Calm Calm 4.0 mph6.4 kmh 30.23 in1023.7 mb 0.00 in0.0 mm 0.00 in0.0 mm 0.00 in0.0 mm
01:45 AM 41.2°F5.1°C 31.8°F-0.1°C 69% 1.0 mph SW1.6 kmh SW 4.0 mph6.4 kmh 30.22 in1023.4 mb 0.00 in0.0 mm 0.00 in0.0 mm 0.00 in0.0 mm
01:40 AM 41.3°F5.2°C 31.5°F-0.3°C 68% Calm Calm 3.0 mph4.8 kmh 30.22 in1023.4 mb 0.00 in0.0 mm 0.00 in0.0 mm 0.00 in0.0 mm
01:35 AM 41.4°F5.2°C 31.6°F-0.2°C 68% 2.0 mph WSW3.2 kmh WSW 5.0 mph8.0 kmh 30.23 in1023.7 mb 0.00 in0.0 mm 0.00 in0.0 mm 0.00 in0.0 mm
01:30 AM 41.6°F5.3°C 31.8°F-0.1°C 68% 2.0 mph WSW3.2 kmh WSW 5.0 mph8.0 kmh 30.23 in1023.7 mb 0.00 in0.0 mm 0.00 in0.0 mm 0.00 in0.0 mm
01:25 AM 41.7°F5.4°C 31.9°F-0.1°C 68% 4.0 mph WSW6.4 kmh WSW 4.0 mph6.4 kmh 30.23 in1023.7 mb 0.00 in0.0 mm 0.00 in0.0 mm 0.00 in0.0 mm
01:20 AM 41.6°F5.3°C 31.8°F-0.1°C 68% 3.0 mph SW4.8 kmh SW 5.0 mph8.0 kmh 30.23 in1023.7 mb 0.00 in0.0 mm 0.00 in0.0 mm 0.00 in0.0 mm
01:15 AM 41.8°F5.4°C 31.6°F-0.2°C 67% 3.0 mph SW4.8 kmh SW 5.0 mph8.0 kmh 30.23 in1023.7 mb 0.00 in0.0 mm 0.00 in0.0 mm 0.00 in0.0 mm
01:10 AM 41.9°F5.5°C 31.7°F-0.2°C 67% 4.0 mph SSW6.4 kmh SSW 4.0 mph6.4 kmh 30.23 in1023.7 mb 0.00 in0.0 mm 0.00 in0.0 mm 0.00 in0.0 mm
01:05 AM 42.0°F5.6°C 32.2°F0.1°C 68% 2.0 mph SSW3.2 kmh SSW 4.0 mph6.4 kmh 30.23 in1023.7 mb 0.00 in0.0 mm 0.00 in0.0 mm 0.00 in0.0 mm
01:00 AM 42.0°F5.6°C 31.8°F-0.1°C 67% Calm Calm 5.0 mph8.0 kmh 30.23 in1023.7 mb 0.00 in0.0 mm 0.00 in0.0 mm 0.00 in0.0 mm
12:55 AM 42.0°F5.6°C 31.8°F-0.1°C 67% 2.0 mph SSW3.2 kmh SSW 4.0 mph6.4 kmh 30.23 in1023.7 mb 0.00 in0.0 mm 0.00 in0.0 mm 0.00 in0.0 mm
12:50 AM 42.0°F5.6°C 32.2°F0.1°C 68% Calm Calm 4.0 mph6.4 kmh 30.23 in1023.7 mb 0.00 in0.0 mm 0.00 in0.0 mm 0.00 in0.0 mm
12:45 AM 41.9°F5.5°C 32.1°F0.1°C 68% Calm Calm 5.0 mph8.0 kmh 30.23 in1023.7 mb 0.00 in0.0 mm 0.00 in0.0 mm 0.00 in0.0 mm
12:40 AM 41.8°F5.4°C 32.0°F0.0°C 68% 3.0 mph SSW4.8 kmh SSW 5.0 mph8.0 kmh 30.23 in1023.7 mb 0.00 in0.0 mm 0.00 in0.0 mm 0.00 in0.0 mm
12:35 AM 41.8°F5.4°C 32.0°F0.0°C 68% 3.0 mph SSW4.8 kmh SSW 4.0 mph6.4 kmh 30.23 in1023.7 mb 0.00 in0.0 mm 0.00 in0.0 mm 0.00 in0.0 mm
12:30 AM 42.0°F5.6°C 31.8°F-0.1°C 67% 3.0 mph SW4.8 kmh SW 5.0 mph8.0 kmh 30.23 in1023.7 mb 0.00 in0.0 mm 0.00 in0.0 mm 0.00 in0.0 mm
12:25 AM 41.8°F5.4°C 32.0°F0.0°C 68% 3.0 mph SW4.8 kmh SW 4.0 mph6.4 kmh 30.23 in1023.7 mb 0.00 in0.0 mm 0.00 in0.0 mm 0.00 in0.0 mm
12:20 AM 41.8°F5.4°C 32.0°F0.0°C 68% 2.0 mph SW3.2 kmh SW 5.0 mph8.0 kmh 30.23 in1023.7 mb 0.00 in0.0 mm 0.00 in0.0 mm 0.00 in0.0 mm
12:15 AM 41.8°F5.4°C 31.6°F-0.2°C 67% Calm Calm 4.0 mph6.4 kmh 30.23 in1023.7 mb 0.00 in0.0 mm 0.00 in0.0 mm 0.00 in0.0 mm
12:10 AM 42.3°F5.7°C 31.7°F-0.2°C 66% 3.0 mph SSW4.8 kmh SSW 5.0 mph8.0 kmh 30.23 in1023.7 mb 0.00 in0.0 mm 0.00 in0.0 mm 0.00 in0.0 mm
12:05 AM 42.6°F5.9°C 32.0°F0.0°C 66% Calm Calm 5.0 mph8.0 kmh 30.23 in1023.7 mb 0.00 in0.0 mm 0.00 in0.0 mm 0.00 in0.0 mm
12:00 AM 42.8°F6.0°C 32.2°F0.1°C 66% 3.0 mph SW4.8 kmh SW 4.0 mph6.4 kmh 30.23 in1023.7 mb 0.00 in0.0 mm 0.00 in0.0 mm 0.00 in0.0 mm